TGW274 WSSS-WIII
Flight info
| Callsign | TGW274 |
|---|---|
| Flight time | N/A |
| Altitude | 37000 |
| Route | ANITO7A ANITO B470 BUNIK |
| Aircraft | A320/M-SDFGHIRWYZ/LB1 |
Departure
| Time | N/A |
|---|---|
| Airport | Singapore Changi Airport (WSSS) |
Arrival
| Time | 2026-05-01 08:10 |
|---|---|
| Airport | Soekarno-Hatta International Airport (WIII) |
| Time | Latitude | Longitude | Altitude | Speed | Heading |
|---|---|---|---|---|---|
| 2026-05-01 07:23 | -1.89665 | 105.95874 | 36873 ft | 451 kts | 143° |
| 2026-05-01 07:24 | -1.97452 | 106.01148 | 36871 ft | 450 kts | 143° |
| 2026-05-01 07:24 | -2.02642 | 106.04662 | 36873 ft | 451 kts | 143° |
| 2026-05-01 07:25 | -2.07833 | 106.08177 | 36870 ft | 451 kts | 143° |
| 2026-05-01 07:25 | -2.13018 | 106.11694 | 36868 ft | 450 kts | 143° |
| 2026-05-01 07:26 | -2.18664 | 106.14420 | 36862 ft | 456 kts | 162° |
| 2026-05-01 07:26 | -2.24909 | 106.15611 | 36858 ft | 457 kts | 168° |
| 2026-05-01 07:27 | -2.31187 | 106.16676 | 36857 ft | 458 kts | 168° |
| 2026-05-01 07:27 | -2.37466 | 106.17754 | 36856 ft | 458 kts | 168° |
| 2026-05-01 07:28 | -2.43750 | 106.18830 | 36856 ft | 458 kts | 168° |
| 2026-05-01 07:28 | -2.50031 | 106.19910 | 36858 ft | 458 kts | 168° |
| 2026-05-01 07:29 | -2.56315 | 106.20977 | 36858 ft | 458 kts | 168° |
| 2026-05-01 07:29 | -2.62608 | 106.22050 | 36860 ft | 458 kts | 168° |
| 2026-05-01 07:30 | -2.68890 | 106.23128 | 36860 ft | 458 kts | 168° |
| 2026-05-01 07:30 | -2.75169 | 106.24203 | 36862 ft | 458 kts | 168° |
| 2026-05-01 07:31 | -2.81449 | 106.25285 | 36862 ft | 458 kts | 168° |
| 2026-05-01 07:32 | -2.97139 | 106.27966 | 36862 ft | 457 kts | 168° |
| 2026-05-01 07:33 | -3.06535 | 106.29577 | 36863 ft | 457 kts | 168° |
| 2026-05-01 07:33 | -3.15929 | 106.31185 | 36860 ft | 456 kts | 168° |
| 2026-05-01 07:34 | -3.25277 | 106.32783 | 36862 ft | 456 kts | 168° |
| 2026-05-01 07:35 | -3.31541 | 106.33853 | 36862 ft | 456 kts | 168° |
| 2026-05-01 07:35 | -3.37800 | 106.34927 | 36865 ft | 456 kts | 168° |
| 2026-05-01 07:36 | -3.44057 | 106.36005 | 36869 ft | 456 kts | 168° |
| 2026-05-01 07:36 | -3.50314 | 106.37074 | 36872 ft | 456 kts | 168° |
| 2026-05-01 07:37 | -3.59694 | 106.38681 | 36870 ft | 456 kts | 168° |
| 2026-05-01 07:37 | -3.65940 | 106.39771 | 36873 ft | 456 kts | 168° |
| 2026-05-01 07:38 | -3.72162 | 106.40943 | 36872 ft | 455 kts | 167° |
| 2026-05-01 07:39 | -3.81499 | 106.42723 | 36872 ft | 455 kts | 167° |
| 2026-05-01 07:39 | -3.90850 | 106.44470 | 36873 ft | 455 kts | 168° |
| 2026-05-01 07:40 | -3.97081 | 106.45639 | 36875 ft | 455 kts | 167° |
| 2026-05-01 07:40 | -4.03309 | 106.46808 | 36874 ft | 455 kts | 168° |
| 2026-05-01 07:41 | -4.09538 | 106.47970 | 36874 ft | 455 kts | 168° |
| 2026-05-01 07:42 | -4.18877 | 106.49712 | 36873 ft | 455 kts | 168° |
| 2026-05-01 07:42 | -4.25101 | 106.50889 | 36872 ft | 455 kts | 168° |
| 2026-05-01 07:43 | -4.31330 | 106.52056 | 36860 ft | 455 kts | 168° |
| 2026-05-01 07:43 | -4.40675 | 106.53792 | 36849 ft | 455 kts | 168° |
| 2026-05-01 07:44 | -4.53089 | 106.56122 | 36846 ft | 455 kts | 168° |
| 2026-05-01 07:45 | -4.59359 | 106.57302 | 36845 ft | 455 kts | 168° |
| 2026-05-01 07:45 | -4.65582 | 106.58472 | 36847 ft | 456 kts | 168° |
| 2026-05-01 07:46 | -4.68664 | 106.59053 | 36629 ft | 456 kts | 168° |
| 2026-05-01 07:46 | -4.71825 | 106.59644 | 36006 ft | 456 kts | 168° |
| 2026-05-01 07:46 | -4.78086 | 106.60817 | 34556 ft | 460 kts | 168° |
| 2026-05-01 07:47 | -4.81239 | 106.61410 | 33750 ft | 462 kts | 168° |
| 2026-05-01 07:47 | -4.84413 | 106.62021 | 32863 ft | 465 kts | 166° |
| 2026-05-01 07:47 | -4.87503 | 106.62967 | 31989 ft | 466 kts | 157° |
| 2026-05-01 07:47 | -4.90453 | 106.64297 | 31377 ft | 462 kts | 154° |
| 2026-05-01 07:48 | -4.96245 | 106.66955 | 30234 ft | 454 kts | 154° |
| 2026-05-01 07:48 | -4.99109 | 106.68256 | 29670 ft | 450 kts | 154° |
| 2026-05-01 07:48 | -5.01948 | 106.69544 | 29102 ft | 446 kts | 154° |
| 2026-05-01 07:49 | -5.04725 | 106.70806 | 28542 ft | 442 kts | 154° |
| 2026-05-01 07:49 | -5.10314 | 106.73358 | 27416 ft | 435 kts | 154° |
| 2026-05-01 07:49 | -5.13070 | 106.74580 | 26700 ft | 434 kts | 159° |
| 2026-05-01 07:50 | -5.16009 | 106.75236 | 25548 ft | 446 kts | 175° |
| 2026-05-01 07:50 | -5.21968 | 106.73897 | 24088 ft | 436 kts | 207° |
| 2026-05-01 07:50 | -5.24605 | 106.72439 | 23016 ft | 430 kts | 208° |
| 2026-05-01 07:51 | -5.27179 | 106.70958 | 22068 ft | 423 kts | 209° |
| 2026-05-01 07:51 | -5.29688 | 106.69484 | 21652 ft | 414 kts | 210° |
| 2026-05-01 07:51 | -5.32156 | 106.68027 | 21184 ft | 411 kts | 210° |
| 2026-05-01 07:52 | -5.37084 | 106.65177 | 20239 ft | 406 kts | 207° |
| 2026-05-01 07:52 | -5.39578 | 106.63870 | 19723 ft | 404 kts | 206° |
| 2026-05-01 07:52 | -5.42092 | 106.62623 | 19224 ft | 402 kts | 205° |
| 2026-05-01 07:53 | -5.47102 | 106.60191 | 18177 ft | 398 kts | 205° |
| 2026-05-01 07:53 | -5.49581 | 106.58973 | 17657 ft | 395 kts | 206° |
| 2026-05-01 07:53 | -5.52037 | 106.57751 | 17137 ft | 393 kts | 206° |
| 2026-05-01 07:53 | -5.54471 | 106.56526 | 16608 ft | 390 kts | 206° |
| 2026-05-01 07:54 | -5.59272 | 106.54086 | 15566 ft | 383 kts | 206° |
| 2026-05-01 07:55 | -5.66317 | 106.50528 | 14016 ft | 372 kts | 206° |
| 2026-05-01 07:55 | -5.70891 | 106.48220 | 13135 ft | 361 kts | 206° |
| 2026-05-01 07:56 | -5.77526 | 106.44867 | 11669 ft | 351 kts | 206° |
| 2026-05-01 07:56 | -5.81852 | 106.42678 | 10688 ft | 345 kts | 206° |
| 2026-05-01 07:57 | -5.83983 | 106.41599 | 10338 ft | 336 kts | 206° |
| 2026-05-01 07:57 | -5.87887 | 106.39627 | 9992 ft | 301 kts | 206° |
| 2026-05-01 07:58 | -5.91571 | 106.37772 | 9562 ft | 295 kts | 206° |
| 2026-05-01 07:58 | -5.95270 | 106.35912 | 8811 ft | 294 kts | 205° |
| 2026-05-01 07:59 | -5.98910 | 106.34079 | 7811 ft | 293 kts | 205° |
| 2026-05-01 07:59 | -6.02400 | 106.32314 | 7222 ft | 265 kts | 206° |
| 2026-05-01 08:00 | -6.08960 | 106.32152 | 6502 ft | 233 kts | 169° |
| 2026-05-01 08:01 | -6.13727 | 106.32992 | 5868 ft | 230 kts | 169° |
| 2026-05-01 08:01 | -6.15305 | 106.33272 | 5644 ft | 230 kts | 169° |
| 2026-05-01 08:01 | -6.16879 | 106.33551 | 5435 ft | 229 kts | 169° |
| 2026-05-01 08:02 | -6.19937 | 106.34241 | 5279 ft | 217 kts | 152° |
| 2026-05-01 08:02 | -6.21072 | 106.35136 | 5167 ft | 209 kts | 129° |
| 2026-05-01 08:03 | -6.22382 | 106.37182 | 4885 ft | 207 kts | 122° |
| 2026-05-01 08:03 | -6.23138 | 106.38414 | 4714 ft | 207 kts | 118° |
| 2026-05-01 08:03 | -6.23457 | 106.41217 | 4362 ft | 208 kts | 73° |
| 2026-05-01 08:04 | -6.22393 | 106.43928 | 4217 ft | 208 kts | 69° |
| 2026-05-01 08:04 | -6.21345 | 106.46560 | 3723 ft | 199 kts | 69° |
| 2026-05-01 08:05 | -6.20345 | 106.49075 | 3204 ft | 186 kts | 69° |
| 2026-05-01 08:05 | -6.19877 | 106.50249 | 2964 ft | 176 kts | 69° |
| 2026-05-01 08:05 | -6.19441 | 106.51345 | 2744 ft | 163 kts | 69° |
| 2026-05-01 08:06 | -6.18645 | 106.53343 | 2352 ft | 149 kts | 68° |
| 2026-05-01 08:06 | -6.17888 | 106.55244 | 1960 ft | 144 kts | 66° |
| 2026-05-01 08:07 | -6.17144 | 106.57112 | 1575 ft | 145 kts | 65° |
| 2026-05-01 08:07 | -6.16404 | 106.58972 | 1194 ft | 142 kts | 64° |
| 2026-05-01 08:08 | -6.16038 | 106.59890 | 1006 ft | 142 kts | 64° |
| 2026-05-01 08:08 | -6.15312 | 106.61727 | 643 ft | 141 kts | 64° |
| 2026-05-01 08:09 | -6.14582 | 106.63548 | 282 ft | 141 kts | 65° |
| 2026-05-01 08:09 | -6.14210 | 106.64477 | 86 ft | 141 kts | 65° |
| 2026-05-01 08:09 | -6.13864 | 106.65335 | 42 ft | 119 kts | 68° |
| 2026-05-01 08:10 | -6.13493 | 106.66191 | 38 ft | 21 kts | 45° |
| 2026-05-01 08:10 | -6.13325 | 106.66303 | 37 ft | 11 kts | 354° |
| 2026-05-01 08:11 | -6.13231 | 106.66443 | 39 ft | 15 kts | 68° |
| 2026-05-01 08:11 | -6.13143 | 106.66660 | 39 ft | 17 kts | 68° |
| 2026-05-01 08:12 | -6.13052 | 106.66890 | 37 ft | 20 kts | 68° |
| 2026-05-01 08:12 | -6.12999 | 106.67025 | 39 ft | 21 kts | 68° |
| 2026-05-01 08:12 | -6.12907 | 106.67253 | 37 ft | 17 kts | 69° |
| 2026-05-01 08:13 | -6.12865 | 106.67366 | 39 ft | 18 kts | 71° |
| 2026-05-01 08:13 | -6.12815 | 106.67480 | 37 ft | 18 kts | 58° |
| 2026-05-01 08:13 | -6.12680 | 106.67703 | 38 ft | 19 kts | 59° |
| 2026-05-01 08:14 | -6.12593 | 106.67808 | 37 ft | 20 kts | 39° |
| 2026-05-01 08:14 | -6.12465 | 106.67863 | 38 ft | 21 kts | 11° |
| 2026-05-01 08:14 | -6.12322 | 106.67853 | 38 ft | 21 kts | 343° |
| 2026-05-01 08:14 | -6.12192 | 106.67804 | 44 ft | 18 kts | 337° |
| 2026-05-01 08:15 | -6.12077 | 106.67757 | 49 ft | 17 kts | 338° |
| 2026-05-01 08:15 | -6.11877 | 106.67676 | 58 ft | 15 kts | 340° |
| 2026-05-01 08:15 | -6.11779 | 106.67638 | 60 ft | 16 kts | 339° |
| 2026-05-01 08:16 | -6.11667 | 106.67593 | 53 ft | 22 kts | 339° |
| 2026-05-01 08:16 | -6.11510 | 106.67534 | 38 ft | 24 kts | 337° |
| 2026-05-01 08:16 | -6.11361 | 106.67473 | 38 ft | 19 kts | 338° |
| 2026-05-01 08:16 | -6.11237 | 106.67424 | 38 ft | 19 kts | 338° |
| 2026-05-01 08:17 | -6.11118 | 106.67367 | 37 ft | 19 kts | 320° |
| 2026-05-01 08:17 | -6.11093 | 106.67246 | 38 ft | 19 kts | 257° |
| 2026-05-01 08:17 | -6.11123 | 106.67114 | 38 ft | 20 kts | 259° |
| 2026-05-01 08:17 | -6.11145 | 106.67017 | 38 ft | 11 kts | 255° |
| 2026-05-01 08:18 | -6.11171 | 106.66943 | 38 ft | 11 kts | 247° |
| 2026-05-01 08:18 | -6.11239 | 106.66777 | 38 ft | 15 kts | 248° |
| 2026-05-01 08:19 | -6.11320 | 106.66574 | 38 ft | 16 kts | 248° |
| 2026-05-01 08:19 | -6.11363 | 106.66467 | 38 ft | 17 kts | 248° |
| 2026-05-01 08:19 | -6.11407 | 106.66355 | 38 ft | 18 kts | 248° |
| 2026-05-01 08:19 | -6.11453 | 106.66240 | 38 ft | 18 kts | 249° |
| 2026-05-01 08:20 | -6.11500 | 106.66124 | 38 ft | 14 kts | 247° |
| 2026-05-01 08:20 | -6.11535 | 106.66034 | 38 ft | 14 kts | 249° |
| 2026-05-01 08:20 | -6.11580 | 106.65952 | 37 ft | 13 kts | 214° |
| 2026-05-01 08:20 | -6.11663 | 106.65968 | 38 ft | 13 kts | 158° |
| 2026-05-01 08:21 | -6.11746 | 106.66002 | 36 ft | 13 kts | 158° |
| 2026-05-01 08:21 | -6.11820 | 106.66032 | 36 ft | 9 kts | 158° |
| 2026-05-01 08:21 | -6.11858 | 106.66040 | 38 ft | 6 kts | 169° |
| 2026-05-01 08:21 | -6.11894 | 106.66054 | 37 ft | 5 kts | 157° |
| 2026-05-01 08:22 | -6.11913 | 106.66062 | 38 ft | 2 kts | 157° |
| 2026-05-01 08:22 | -6.11924 | 106.66072 | 38 ft | 2 kts | 137° |